Time;durP1;ratioP1;P1;durP2;ratioP2;P2;SDS_P1;SDS_P2;PMS_P1;PMS_P2;Temp;Humidity;BMP_temperature;BMP_pressure;BME280_temperature;BME280_humidity;BME280_pressure;Samples;Min_cycle;Max_cycle;Signal;HPM_P1;HPM_P2
2023/12/25 00:01:04;;;;;;;12.93;2.90;;;;;;;;;;5031121;28;20061;-70
2023/12/25 00:03:31;;;;;;;14.13;2.70;;;;;;;;;;5030181;28;20041;-70
2023/12/25 00:05:57;;;;;;;10.40;2.50;;;;;;;;;;5031315;28;20049;-70
2023/12/25 00:08:23;;;;;;;11.13;2.72;;;;;;;;;;5031035;28;20044;-70
2023/12/25 00:10:49;;;;;;;11.65;3.13;;;;;;;;;;5029636;28;20029;-70
2023/12/25 00:13:15;;;;;;;13.60;2.88;;;;;;;;;;5029886;28;20037;-70
2023/12/25 00:15:41;;;;;;;13.98;2.70;;;;;;;;;;5030281;28;20427;-70
2023/12/25 00:18:07;;;;;;;10.32;3.47;;;;;;;;;;5030532;28;20043;-70
2023/12/25 00:20:33;;;;;;;14.80;2.72;;;;;;;;;;5021378;28;20522;-70
2023/12/25 00:22:59;;;;;;;14.70;2.83;;;;;;;;;;5031251;28;20041;-70
2023/12/25 00:25:25;;;;;;;12.82;3.50;;;;;;;;;;5030852;28;20053;-70
2023/12/25 00:27:52;;;;;;;11.70;2.50;;;;;;;;;;5029042;28;20048;-70
2023/12/25 00:30:19;;;;;;;16.33;2.63;;;;;;;;;;5027589;28;20442;-70
2023/12/25 00:32:45;;;;;;;12.63;3.17;;;;;;;;;;5028409;28;20498;-70
2023/12/25 00:35:11;;;;;;;11.70;2.70;;;;;;;;;;5030261;28;20045;-70
2023/12/25 00:37:36;;;;;;;16.05;2.90;;;;;;;;;;5031212;28;20041;-70
2023/12/25 00:40:03;;;;;;;14.45;2.92;;;;;;;;;;5030174;28;20048;-70
2023/12/25 00:42:29;;;;;;;11.80;2.72;;;;;;;;;;5025825;28;20402;-70
2023/12/25 00:44:55;;;;;;;10.77;2.42;;;;;;;;;;5031458;28;20125;-70
2023/12/25 00:47:21;;;;;;;14.50;2.40;;;;;;;;;;5031082;28;20044;-70
2023/12/25 00:49:47;;;;;;;10.20;2.30;;;;;;;;;;5029461;28;20084;-70
2023/12/25 00:52:16;;;;;;;12.65;2.40;;;;;;;;;;5033138;28;20034;-70
2023/12/25 00:54:43;;;;;;;14.18;2.50;;;;;;;;;;5034365;28;20507;-70
2023/12/25 00:57:09;;;;;;;9.93;2.42;;;;;;;;;;5034965;28;20038;-70
2023/12/25 00:59:35;;;;;;;9.90;2.90;;;;;;;;;;5031813;28;20045;-70
2023/12/25 01:02:01;;;;;;;11.55;2.38;;;;;;;;;;5034162;28;20137;-70
2023/12/25 01:04:27;;;;;;;13.57;2.85;;;;;;;;;;5034330;28;20460;-70
2023/12/25 01:06:53;;;;;;;8.23;1.90;;;;;;;;;;5034143;28;20072;-70
2023/12/25 01:09:19;;;;;;;12.20;2.30;;;;;;;;;;5033823;28;20128;-70
2023/12/25 01:11:45;;;;;;;10.85;2.55;;;;;;;;;;5033324;28;20132;-70
2023/12/25 01:14:11;;;;;;;13.13;3.08;;;;;;;;;;5034869;28;20041;-70
2023/12/25 01:16:37;;;;;;;13.15;2.63;;;;;;;;;;5033644;28;20075;-70
2023/12/25 01:19:04;;;;;;;14.18;2.25;;;;;;;;;;5032532;28;20038;-70
2023/12/25 01:21:32;;;;;;;10.45;2.20;;;;;;;;;;5031985;28;20041;-70
2023/12/25 01:23:58;;;;;;;13.55;2.38;;;;;;;;;;5033613;28;20046;-70
2023/12/25 01:26:24;;;;;;;11.60;2.35;;;;;;;;;;5033400;28;20040;-70
2023/12/25 01:28:50;;;;;;;12.30;2.72;;;;;;;;;;5030636;28;20403;-70
2023/12/25 01:31:16;;;;;;;12.32;2.05;;;;;;;;;;5029244;28;20045;-70
2023/12/25 01:33:42;;;;;;;11.82;2.20;;;;;;;;;;5032803;28;20039;-70
2023/12/25 01:36:07;;;;;;;15.48;2.65;;;;;;;;;;5032742;28;20044;-70
2023/12/25 01:38:33;;;;;;;15.32;2.67;;;;;;;;;;5034183;28;20051;-70
2023/12/25 01:40:59;;;;;;;9.43;2.00;;;;;;;;;;5033373;28;20041;-70
2023/12/25 01:43:25;;;;;;;13.48;2.58;;;;;;;;;;5034436;28;20052;-70
2023/12/25 01:45:51;;;;;;;9.35;2.13;;;;;;;;;;5033222;28;20041;-70
2023/12/25 01:48:17;;;;;;;12.90;2.90;;;;;;;;;;5028817;28;20081;-70
2023/12/25 01:50:43;;;;;;;14.52;2.40;;;;;;;;;;5029975;28;20038;-70
2023/12/25 01:53:09;;;;;;;11.02;2.35;;;;;;;;;;5032933;28;20391;-70
2023/12/25 01:55:36;;;;;;;14.57;2.70;;;;;;;;;;5031662;28;20041;-70
2023/12/25 01:58:02;;;;;;;14.00;2.80;;;;;;;;;;5033325;28;20045;-70
2023/12/25 02:00:28;;;;;;;10.90;2.45;;;;;;;;;;5032804;28;20037;-70
2023/12/25 02:02:54;;;;;;;8.43;1.98;;;;;;;;;;5031937;28;20102;-70
2023/12/25 02:05:20;;;;;;;7.85;1.98;;;;;;;;;;5033792;28;20056;-70
2023/12/25 02:07:47;;;;;;;9.75;2.40;;;;;;;;;;5032520;28;20045;-70
2023/12/25 02:10:25;;;;;;;12.15;2.22;;;;;;;;;;5025918;28;20049;-70
2023/12/25 02:12:50;;;;;;;9.70;2.28;;;;;;;;;;5032638;28;20570;-70
2023/12/25 02:15:16;;;;;;;10.93;2.28;;;;;;;;;;5033792;28;20041;-70
2023/12/25 02:17:43;;;;;;;10.65;1.90;;;;;;;;;;5032910;28;20034;-70
2023/12/25 02:20:09;;;;;;;8.13;2.00;;;;;;;;;;5029022;28;20068;-70
2023/12/25 02:22:35;;;;;;;12.27;2.90;;;;;;;;;;5027891;28;20556;-70
2023/12/25 02:25:10;;;;;;;10.30;2.13;;;;;;;;;;5032952;28;20123;-70
2023/12/25 02:27:36;;;;;;;11.65;2.55;;;;;;;;;;5032819;28;20120;-70
2023/12/25 02:30:02;;;;;;;7.40;1.90;;;;;;;;;;5030565;28;20113;-70
2023/12/25 02:32:31;;;;;;;10.65;1.88;;;;;;;;;;5032656;28;20040;-70
2023/12/25 02:34:58;;;;;;;8.27;2.05;;;;;;;;;;5031376;28;20469;-70
2023/12/25 02:37:24;;;;;;;13.45;2.38;;;;;;;;;;5032619;28;20037;-70
2023/12/25 02:39:50;;;;;;;11.00;2.10;;;;;;;;;;5032130;28;20044;-70
2023/12/25 02:42:16;;;;;;;8.57;2.00;;;;;;;;;;5031995;28;20046;-70
2023/12/25 02:44:41;;;;;;;11.43;2.10;;;;;;;;;;5032038;28;20046;-70
2023/12/25 02:47:07;;;;;;;10.40;1.70;;;;;;;;;;5031600;28;20056;-70
2023/12/25 02:49:33;;;;;;;11.23;1.90;;;;;;;;;;5031526;28;20044;-70
2023/12/25 02:51:59;;;;;;;10.10;1.75;;;;;;;;;;5032394;28;20053;-70
2023/12/25 02:54:25;;;;;;;11.60;1.95;;;;;;;;;;5030371;28;20082;-70
2023/12/25 02:56:51;;;;;;;6.30;1.45;;;;;;;;;;5031256;28;20041;-70
2023/12/25 02:59:17;;;;;;;8.02;1.20;;;;;;;;;;5029758;28;20041;-70
2023/12/25 03:01:43;;;;;;;8.80;1.90;;;;;;;;;;5027903;28;20407;-70
2023/12/25 03:04:09;;;;;;;13.68;2.00;;;;;;;;;;5032317;28;20037;-70
2023/12/25 03:06:35;;;;;;;8.77;1.42;;;;;;;;;;5029835;28;20534;-70
2023/12/25 03:09:01;;;;;;;6.30;1.58;;;;;;;;;;5029368;28;20116;-70
2023/12/25 03:11:27;;;;;;;9.57;1.67;;;;;;;;;;5031836;28;20038;-70
2023/12/25 03:13:53;;;;;;;8.35;1.50;;;;;;;;;;5030848;28;20508;-70
2023/12/25 03:16:19;;;;;;;8.05;1.58;;;;;;;;;;5031578;28;20052;-70
2023/12/25 03:18:45;;;;;;;7.45;1.60;;;;;;;;;;5030333;28;20080;-70
2023/12/25 03:21:11;;;;;;;9.85;1.70;;;;;;;;;;5030916;28;20037;-70
2023/12/25 03:23:37;;;;;;;9.45;1.50;;;;;;;;;;5031564;28;20120;-70
2023/12/25 03:26:03;;;;;;;10.70;1.85;;;;;;;;;;5031786;28;20046;-70
2023/12/25 03:28:29;;;;;;;8.02;1.73;;;;;;;;;;5031756;28;20073;-70
2023/12/25 03:30:55;;;;;;;6.95;1.60;;;;;;;;;;5031352;28;20045;-70
2023/12/25 03:33:21;;;;;;;8.10;1.80;;;;;;;;;;5031065;28;20436;-70
2023/12/25 03:35:47;;;;;;;8.93;1.90;;;;;;;;;;5031936;28;20072;-70
2023/12/25 03:38:13;;;;;;;9.25;1.60;;;;;;;;;;5031086;28;20099;-70
2023/12/25 03:40:39;;;;;;;7.40;1.30;;;;;;;;;;5031360;28;20125;-70
2023/12/25 03:43:06;;;;;;;6.05;1.38;;;;;;;;;;5032177;28;20479;-70
2023/12/25 03:45:32;;;;;;;7.72;1.80;;;;;;;;;;5030732;28;20037;-70
2023/12/25 03:47:58;;;;;;;6.05;1.85;;;;;;;;;;5029463;28;20068;-70
2023/12/25 03:50:24;;;;;;;9.40;1.70;;;;;;;;;;5031104;28;20037;-70
2023/12/25 03:52:49;;;;;;;8.27;1.80;;;;;;;;;;5031051;28;20112;-70
2023/12/25 03:55:15;;;;;;;7.50;1.67;;;;;;;;;;5023622;28;20061;-70
2023/12/25 03:57:42;;;;;;;6.25;1.67;;;;;;;;;;5029760;28;20095;-70
2023/12/25 04:00:08;;;;;;;3.95;1.27;;;;;;;;;;5031162;28;21073;-70
2023/12/25 04:02:34;;;;;;;7.90;1.55;;;;;;;;;;5029908;28;20049;-70
2023/12/25 04:05:00;;;;;;;7.45;1.50;;;;;;;;;;5030755;28;20030;-70
2023/12/25 04:07:26;;;;;;;7.88;1.70;;;;;;;;;;5031117;28;20041;-70
2023/12/25 04:09:52;;;;;;;6.45;1.48;;;;;;;;;;5030350;28;20377;-70
2023/12/25 04:12:18;;;;;;;9.77;1.98;;;;;;;;;;5031439;28;20129;-70
2023/12/25 04:14:44;;;;;;;6.50;1.45;;;;;;;;;;5030534;28;20083;-70
2023/12/25 04:17:10;;;;;;;9.25;1.42;;;;;;;;;;5031528;28;20040;-70
2023/12/25 04:19:36;;;;;;;8.25;1.58;;;;;;;;;;5031733;28;20037;-70
2023/12/25 04:22:02;;;;;;;9.48;1.60;;;;;;;;;;5028350;28;20052;-71
2023/12/25 04:24:28;;;;;;;9.30;1.50;;;;;;;;;;5030505;28;20067;-71
2023/12/25 04:26:54;;;;;;;7.28;1.65;;;;;;;;;;5031022;28;20041;-71
2023/12/25 04:29:20;;;;;;;6.75;1.70;;;;;;;;;;5030777;28;20484;-71
2023/12/25 04:31:46;;;;;;;9.00;1.48;;;;;;;;;;5029564;28;20033;-71
2023/12/25 04:34:12;;;;;;;8.63;1.20;;;;;;;;;;5029854;28;20037;-71
2023/12/25 04:36:37;;;;;;;9.25;1.70;;;;;;;;;;5027334;28;20044;-71
2023/12/25 04:39:05;;;;;;;5.55;1.10;;;;;;;;;;5028377;28;20048;-71
2023/12/25 04:41:31;;;;;;;9.05;1.30;;;;;;;;;;5020127;28;20120;-71
2023/12/25 04:43:57;;;;;;;6.65;1.48;;;;;;;;;;5030480;28;20129;-71
2023/12/25 04:46:23;;;;;;;7.60;1.38;;;;;;;;;;5026882;28;20491;-71
2023/12/25 04:48:49;;;;;;;5.15;1.40;;;;;;;;;;5030619;28;20045;-71
2023/12/25 04:51:15;;;;;;;8.23;1.40;;;;;;;;;;5027550;28;20440;-71
2023/12/25 04:53:41;;;;;;;8.70;1.63;;;;;;;;;;5030442;28;20076;-71
2023/12/25 04:56:10;;;;;;;8.65;1.55;;;;;;;;;;5028180;28;20048;-71
2023/12/25 04:58:36;;;;;;;6.57;1.42;;;;;;;;;;5030539;28;20045;-71
2023/12/25 05:01:03;;;;;;;9.77;1.88;;;;;;;;;;5024784;28;20041;-71
2023/12/25 05:03:29;;;;;;;8.00;1.40;;;;;;;;;;5020680;28;20033;-71
2023/12/25 05:05:55;;;;;;;5.13;1.40;;;;;;;;;;5023881;28;20088;-71
2023/12/25 05:08:21;;;;;;;6.03;1.40;;;;;;;;;;5029305;28;20073;-70
2023/12/25 05:10:47;;;;;;;9.40;1.40;;;;;;;;;;5029428;28;20041;-70
2023/12/25 05:13:14;;;;;;;7.95;1.50;;;;;;;;;;5030502;28;20045;-70
2023/12/25 05:15:40;;;;;;;12.73;1.98;;;;;;;;;;5030985;28;20037;-70
2023/12/25 05:18:06;;;;;;;7.80;1.52;;;;;;;;;;5030288;28;20044;-70
2023/12/25 05:20:32;;;;;;;8.48;1.40;;;;;;;;;;5029392;28;20466;-70
2023/12/25 05:22:58;;;;;;;11.02;1.45;;;;;;;;;;5029968;28;20041;-70
2023/12/25 05:25:24;;;;;;;10.05;1.70;;;;;;;;;;5029247;28;20124;-70
2023/12/25 05:27:49;;;;;;;10.02;1.48;;;;;;;;;;5071394;22;20045;-73
2023/12/25 05:30:15;;;;;;;11.90;1.70;;;;;;;;;;5029525;28;20046;-72
2023/12/25 05:32:41;;;;;;;6.53;1.50;;;;;;;;;;5028603;28;20037;-72
2023/12/25 05:35:08;;;;;;;7.60;1.52;;;;;;;;;;5029017;28;20176;-71
2023/12/25 05:37:34;;;;;;;8.18;1.75;;;;;;;;;;5030564;28;20507;-71
2023/12/25 05:40:00;;;;;;;10.07;1.80;;;;;;;;;;5032481;28;20060;-71
2023/12/25 05:42:26;;;;;;;8.85;1.70;;;;;;;;;;5033448;28;20069;-71
2023/12/25 05:44:52;;;;;;;6.68;1.30;;;;;;;;;;5033345;28;20041;-71
2023/12/25 05:47:18;;;;;;;7.15;1.70;;;;;;;;;;5033841;28;20037;-73
2023/12/25 05:49:44;;;;;;;11.25;1.70;;;;;;;;;;5033280;28;20049;-72
2023/12/25 05:52:10;;;;;;;7.78;1.50;;;;;;;;;;5034099;28;20476;-72
2023/12/25 05:54:36;;;;;;;6.70;1.65;;;;;;;;;;5034054;28;20120;-72
2023/12/25 05:57:02;;;;;;;6.90;1.63;;;;;;;;;;5033721;28;20144;-72
2023/12/25 05:59:28;;;;;;;7.85;1.77;;;;;;;;;;5033658;28;20139;-72
2023/12/25 06:01:54;;;;;;;7.43;1.30;;;;;;;;;;5033056;28;20446;-72
2023/12/25 06:04:20;;;;;;;8.95;1.42;;;;;;;;;;5033441;28;20045;-73
2023/12/25 06:06:46;;;;;;;10.13;2.00;;;;;;;;;;5033009;28;20053;-73
2023/12/25 06:09:13;;;;;;;6.07;2.10;;;;;;;;;;5033636;28;20076;-73
2023/12/25 06:11:39;;;;;;;4.40;1.63;;;;;;;;;;5032846;28;20045;-73
2023/12/25 06:14:05;;;;;;;10.05;1.73;;;;;;;;;;5033315;28;20034;-72
2023/12/25 06:16:31;;;;;;;6.93;1.65;;;;;;;;;;5031995;28;20052;-72
2023/12/25 06:18:57;;;;;;;8.57;1.80;;;;;;;;;;5031798;28;20041;-72
2023/12/25 06:21:23;;;;;;;6.18;1.30;;;;;;;;;;5027445;28;20037;-72
2023/12/25 06:23:49;;;;;;;5.65;1.77;;;;;;;;;;5033751;28;20075;-72
2023/12/25 06:26:15;;;;;;;9.93;1.85;;;;;;;;;;5033884;28;20116;-72
2023/12/25 06:28:41;;;;;;;8.88;1.63;;;;;;;;;;5032691;28;20507;-72
2023/12/25 06:31:08;;;;;;;11.10;1.75;;;;;;;;;;5032461;28;20025;-72
2023/12/25 06:33:33;;;;;;;7.43;1.40;;;;;;;;;;5032098;28;20042;-72
2023/12/25 06:36:00;;;;;;;8.52;1.42;;;;;;;;;;5031875;28;20496;-73
2023/12/25 06:38:26;;;;;;;6.38;1.48;;;;;;;;;;5032835;28;20044;-73
2023/12/25 06:40:52;;;;;;;7.18;1.85;;;;;;;;;;5032025;28;20038;-73
2023/12/25 06:43:17;;;;;;;9.45;1.83;;;;;;;;;;5033219;28;20121;-73
2023/12/25 06:45:44;;;;;;;7.50;1.73;;;;;;;;;;5032994;28;20403;-73
2023/12/25 06:48:10;;;;;;;6.72;1.00;;;;;;;;;;5032485;28;20122;-73
2023/12/25 06:50:38;;;;;;;8.75;1.60;;;;;;;;;;5031867;28;20033;-73
2023/12/25 06:53:04;;;;;;;7.80;1.60;;;;;;;;;;5031430;28;20038;-73
2023/12/25 06:55:30;;;;;;;7.85;1.67;;;;;;;;;;5031171;28;20107;-72
2023/12/25 06:57:56;;;;;;;3.95;1.48;;;;;;;;;;5032053;28;20395;-72
2023/12/25 07:00:23;;;;;;;9.55;1.73;;;;;;;;;;5032592;28;20037;-72
2023/12/25 07:02:50;;;;;;;10.07;1.90;;;;;;;;;;5032500;28;20041;-72
2023/12/25 07:05:16;;;;;;;9.98;1.48;;;;;;;;;;5031227;28;20048;-72
2023/12/25 07:07:42;;;;;;;5.82;1.40;;;;;;;;;;5028508;28;20124;-73
2023/12/25 07:10:08;;;;;;;5.88;1.50;;;;;;;;;;5029355;28;20048;-74
2023/12/25 07:12:34;;;;;;;10.27;2.35;;;;;;;;;;5031961;28;20046;-74
2023/12/25 07:15:00;;;;;;;8.07;1.45;;;;;;;;;;5032319;28;20045;-73
2023/12/25 07:17:26;;;;;;;11.20;1.70;;;;;;;;;;5026794;28;21474;-73
2023/12/25 07:19:52;;;;;;;8.98;2.38;;;;;;;;;;5030876;28;20048;-73
2023/12/25 07:22:19;;;;;;;10.73;1.70;;;;;;;;;;5031051;28;20034;-73
2023/12/25 07:24:45;;;;;;;6.32;1.98;;;;;;;;;;5031622;28;20041;-73
2023/12/25 07:27:11;;;;;;;8.25;1.70;;;;;;;;;;5030511;28;20100;-73
2023/12/25 07:29:37;;;;;;;8.30;1.80;;;;;;;;;;5031470;28;20045;-73
2023/12/25 07:32:03;;;;;;;10.63;2.20;;;;;;;;;;5031358;28;20132;-73
2023/12/25 07:34:29;;;;;;;7.47;1.60;;;;;;;;;;5031305;28;20103;-73
2023/12/25 07:36:55;;;;;;;8.93;1.52;;;;;;;;;;5030655;28;20045;-73
2023/12/25 07:39:21;;;;;;;7.30;2.08;;;;;;;;;;5029504;28;20040;-73
2023/12/25 07:41:47;;;;;;;6.72;1.90;;;;;;;;;;5029857;28;20033;-73
2023/12/25 07:44:13;;;;;;;8.10;1.90;;;;;;;;;;5025962;28;20037;-72
2023/12/25 07:46:39;;;;;;;8.30;1.70;;;;;;;;;;5016816;28;20045;-72
2023/12/25 07:49:05;;;;;;;8.68;1.60;;;;;;;;;;5016821;28;20041;-72
2023/12/25 07:51:31;;;;;;;7.57;1.70;;;;;;;;;;5027348;28;20446;-72
2023/12/25 07:53:57;;;;;;;8.20;1.50;;;;;;;;;;5027835;28;20080;-72
2023/12/25 07:56:23;;;;;;;6.60;1.63;;;;;;;;;;5026741;28;20483;-73
2023/12/25 07:58:49;;;;;;;6.10;1.45;;;;;;;;;;5025158;28;20072;-73
2023/12/25 08:01:15;;;;;;;7.70;1.50;;;;;;;;;;5028424;28;20116;-73
2023/12/25 08:03:41;;;;;;;10.77;1.80;;;;;;;;;;5017072;28;20124;-73
2023/12/25 08:06:09;;;;;;;9.02;1.60;;;;;;;;;;5023089;28;20049;-72
2023/12/25 08:08:35;;;;;;;6.80;1.50;;;;;;;;;;5030898;28;20065;-72
2023/12/25 08:11:02;;;;;;;8.60;1.92;;;;;;;;;;5029241;28;20068;-72
2023/12/25 08:13:28;;;;;;;7.07;1.60;;;;;;;;;;5022919;28;20037;-72
2023/12/25 08:15:54;;;;;;;10.73;1.40;;;;;;;;;;5028232;28;20041;-74
2023/12/25 08:18:20;;;;;;;7.90;1.40;;;;;;;;;;5020878;28;20103;-72
2023/12/25 08:20:46;;;;;;;8.13;2.15;;;;;;;;;;5031699;28;20041;-72
2023/12/25 08:23:12;;;;;;;6.72;1.58;;;;;;;;;;5029028;28;20045;-72
2023/12/25 08:25:40;;;;;;;7.68;1.70;;;;;;;;;;5025682;28;20033;-72
2023/12/25 08:28:06;;;;;;;10.15;1.70;;;;;;;;;;5029238;28;20407;-72
2023/12/25 08:30:32;;;;;;;11.50;1.58;;;;;;;;;;5028492;28;20041;-73
2023/12/25 08:32:58;;;;;;;9.63;1.58;;;;;;;;;;5028248;28;20121;-72
2023/12/25 08:35:24;;;;;;;7.40;1.58;;;;;;;;;;5031775;28;20040;-72
2023/12/25 08:37:50;;;;;;;7.18;1.48;;;;;;;;;;5030464;28;20499;-72
2023/12/25 08:40:16;;;;;;;8.63;1.60;;;;;;;;;;5029374;28;20044;-72
2023/12/25 08:42:42;;;;;;;11.25;1.55;;;;;;;;;;5027471;28;20038;-72
2023/12/25 08:45:09;;;;;;;5.72;1.27;;;;;;;;;;5020848;28;20700;-73
2023/12/25 08:47:35;;;;;;;5.30;1.92;;;;;;;;;;5016634;28;20142;-73
2023/12/25 08:50:01;;;;;;;7.15;1.23;;;;;;;;;;5015340;28;20053;-73
2023/12/25 08:52:27;;;;;;;10.63;1.77;;;;;;;;;;5017157;28;20044;-73
2023/12/25 08:54:53;;;;;;;4.60;1.60;;;;;;;;;;5017151;28;20076;-72
2023/12/25 08:57:19;;;;;;;7.85;1.55;;;;;;;;;;5020650;28;20109;-72
2023/12/25 08:59:49;;;;;;;6.82;1.85;;;;;;;;;;5027861;28;20503;-73
2023/12/25 09:02:15;;;;;;;6.80;1.67;;;;;;;;;;5029137;28;20049;-73
2023/12/25 09:04:41;;;;;;;8.52;1.70;;;;;;;;;;5028943;28;20732;-73
2023/12/25 09:07:07;;;;;;;8.68;1.52;;;;;;;;;;5027872;28;20041;-73
2023/12/25 09:09:33;;;;;;;6.25;1.60;;;;;;;;;;5028353;28;20037;-73
2023/12/25 09:11:59;;;;;;;6.68;1.38;;;;;;;;;;5022404;28;20043;-73
2023/12/25 09:14:25;;;;;;;8.15;1.70;;;;;;;;;;5030162;28;20492;-73
2023/12/25 09:16:50;;;;;;;5.43;1.52;;;;;;;;;;5032479;28;20044;-73
2023/12/25 09:19:16;;;;;;;7.85;1.35;;;;;;;;;;5029098;28;20138;-73
2023/12/25 09:21:43;;;;;;;10.35;1.75;;;;;;;;;;5025676;28;20041;-73
2023/12/25 09:24:09;;;;;;;6.72;1.33;;;;;;;;;;5027546;28;20049;-73
2023/12/25 09:26:35;;;;;;;10.35;1.60;;;;;;;;;;5031162;28;20049;-73
2023/12/25 09:29:01;;;;;;;3.95;1.33;;;;;;;;;;5022976;28;20495;-73
2023/12/25 09:31:27;;;;;;;6.97;1.63;;;;;;;;;;5027747;28;20491;-73
2023/12/25 09:33:53;;;;;;;7.07;1.42;;;;;;;;;;5025506;28;20030;-73
2023/12/25 09:36:19;;;;;;;7.22;1.67;;;;;;;;;;5019509;28;20447;-73
2023/12/25 09:38:45;;;;;;;6.25;1.88;;;;;;;;;;5017502;28;20049;-73
2023/12/25 09:41:14;;;;;;;10.25;2.00;;;;;;;;;;5019219;28;20107;-73
2023/12/25 09:43:42;;;;;;;7.80;1.50;;;;;;;;;;5018158;28;20045;-73
2023/12/25 09:46:10;;;;;;;10.70;2.28;;;;;;;;;;5016366;28;20392;-72
2023/12/25 09:48:38;;;;;;;9.52;2.10;;;;;;;;;;5018002;28;20041;-73
2023/12/25 09:51:05;;;;;;;11.38;2.22;;;;;;;;;;5023080;28;20041;-72
2023/12/25 09:53:31;;;;;;;9.07;2.05;;;;;;;;;;5030974;28;20034;-72
2023/12/25 09:55:59;;;;;;;10.93;1.77;;;;;;;;;;5032368;28;20096;-73
2023/12/25 09:58:26;;;;;;;11.68;2.08;;;;;;;;;;5032702;28;20068;-73
2023/12/25 10:00:53;;;;;;;13.32;2.15;;;;;;;;;;5033894;28;20084;-73
2023/12/25 10:03:20;;;;;;;10.25;2.42;;;;;;;;;;5033262;28;20045;-73
2023/12/25 10:05:46;;;;;;;11.93;2.13;;;;;;;;;;5033986;28;20069;-73
2023/12/25 10:08:12;;;;;;;10.95;2.15;;;;;;;;;;5033645;28;20541;-73
2023/12/25 10:10:38;;;;;;;10.88;2.00;;;;;;;;;;5033442;28;20037;-73
2023/12/25 10:13:04;;;;;;;8.30;1.90;;;;;;;;;;5032291;28;20837;-73
2023/12/25 10:15:30;;;;;;;13.25;2.40;;;;;;;;;;5033669;28;20067;-74
2023/12/25 10:18:03;;;;;;;8.30;2.20;;;;;;;;;;5033723;28;20045;-73
2023/12/25 10:20:30;;;;;;;14.18;2.30;;;;;;;;;;5033387;28;20049;-73
2023/12/25 10:22:56;;;;;;;10.90;2.10;;;;;;;;;;5032794;28;20480;-73
2023/12/25 10:25:27;;;;;;;10.85;2.08;;;;;;;;;;5033626;28;20045;-73
2023/12/25 10:27:53;;;;;;;10.45;1.75;;;;;;;;;;5030443;28;20523;-72
2023/12/25 10:30:24;;;;;;;10.80;2.40;;;;;;;;;;5032389;28;20124;-73
2023/12/25 10:33:08;;;;;;;11.57;1.65;;;;;;;;;;5031769;28;20395;-73
2023/12/25 10:35:34;;;;;;;11.45;2.20;;;;;;;;;;5024892;28;20463;-73
2023/12/25 10:38:03;;;;;;;13.27;2.60;;;;;;;;;;5031389;28;20060;-73
2023/12/25 10:40:31;;;;;;;10.85;2.10;;;;;;;;;;5028608;28;20316;-73
2023/12/25 10:42:57;;;;;;;11.55;2.22;;;;;;;;;;5031752;28;20047;-73
2023/12/25 10:45:24;;;;;;;9.32;1.95;;;;;;;;;;5031730;28;20112;-73
2023/12/25 10:47:51;;;;;;;13.60;2.28;;;;;;;;;;5032469;28;20041;-73
2023/12/25 10:50:23;;;;;;;12.27;2.25;;;;;;;;;;5023888;28;20049;-73
2023/12/25 10:52:50;;;;;;;;;;;;;;;;;;5032668;28;20037;-72
2023/12/25 10:55:19;;;;;;;8.55;1.98;;;;;;;;;;5032626;28;19970;-73
2023/12/25 10:57:45;;;;;;;7.45;1.98;;;;;;;;;;5032742;28;20056;-72
2023/12/25 11:00:12;;;;;;;9.48;2.25;;;;;;;;;;5030500;28;20435;-72
2023/12/25 11:02:39;;;;;;;10.43;2.10;;;;;;;;;;5031998;28;20042;-74
2023/12/25 11:05:06;;;;;;;8.40;1.63;;;;;;;;;;5031564;28;20030;-73
2023/12/25 11:07:32;;;;;;;15.75;2.38;;;;;;;;;;5032926;28;20488;-74
2023/12/25 11:09:59;;;;;;;8.38;1.73;;;;;;;;;;5032615;28;20037;-74
2023/12/25 11:12:25;;;;;;;8.82;1.77;;;;;;;;;;5032395;28;20040;-74
2023/12/25 11:14:51;;;;;;;10.50;2.33;;;;;;;;;;5031371;28;20645;-73
2023/12/25 11:17:17;;;;;;;11.02;2.40;;;;;;;;;;5033258;28;20567;-73
2023/12/25 11:19:43;;;;;;;10.65;1.92;;;;;;;;;;5031391;28;20604;-73
2023/12/25 11:22:29;;;;;;;10.00;2.22;;;;;;;;;;5032935;28;20049;-73
2023/12/25 11:24:56;;;;;;;8.93;1.90;;;;;;;;;;5032580;28;20041;-73
2023/12/25 11:30:04;;;;;;;7.85;2.03;;;;;;;;;;5099362;28;20036;-67
2023/12/25 11:32:35;;;;;;;9.57;2.10;;;;;;;;;;5062371;28;20511;-67
2023/12/25 11:35:01;;;;;;;11.10;1.90;;;;;;;;;;5071815;28;20446;-68
2023/12/25 11:37:28;;;;;;;8.68;1.83;;;;;;;;;;5050227;28;20388;-67
2023/12/25 11:39:59;;;;;;;9.52;1.65;;;;;;;;;;5061312;28;20052;-67
2023/12/25 11:42:25;;;;;;;11.82;1.88;;;;;;;;;;5059461;28;20063;-66
2023/12/25 11:44:56;;;;;;;7.95;1.83;;;;;;;;;;5091956;28;20094;-67
2023/12/25 11:47:29;;;;;;;12.77;2.40;;;;;;;;;;5071130;28;20043;-67
2023/12/25 11:49:58;;;;;;;12.40;1.88;;;;;;;;;;5071031;28;20398;-66
2023/12/25 11:52:43;;;;;;;11.63;1.83;;;;;;;;;;5090070;28;20035;-66
2023/12/25 11:55:09;;;;;;;9.20;1.58;;;;;;;;;;5073267;28;20042;-66
2023/12/25 11:57:35;;;;;;;9.93;1.80;;;;;;;;;;5073822;28;20507;-66
2023/12/25 12:00:02;;;;;;;11.70;1.90;;;;;;;;;;5071468;28;20102;-66
2023/12/25 12:02:28;;;;;;;8.73;2.22;;;;;;;;;;5090986;28;20040;-67
2023/12/25 12:04:54;;;;;;;7.35;1.90;;;;;;;;;;5091543;28;20040;-67
2023/12/25 12:07:21;;;;;;;8.18;1.98;;;;;;;;;;5069070;28;20036;-67
2023/12/25 12:09:47;;;;;;;9.98;2.00;;;;;;;;;;5070927;28;20032;-67
2023/12/25 12:12:13;;;;;;;7.82;2.05;;;;;;;;;;5090743;28;20080;-67
2023/12/25 12:14:39;;;;;;;9.82;2.15;;;;;;;;;;5091452;28;20036;-67
2023/12/25 12:17:05;;;;;;;12.73;1.92;;;;;;;;;;5045960;28;20071;-67
2023/12/25 12:19:31;;;;;;;10.13;2.00;;;;;;;;;;5079664;28;20062;-67
2023/12/25 12:21:58;;;;;;;10.60;2.00;;;;;;;;;;5072342;28;20123;-67
2023/12/25 12:24:27;;;;;;;10.90;2.20;;;;;;;;;;5090699;28;20040;-67
2023/12/25 12:26:53;;;;;;;7.30;1.90;;;;;;;;;;5068665;28;20032;-67
2023/12/25 12:29:19;;;;;;;9.23;2.13;;;;;;;;;;5072917;28;20054;-67
2023/12/25 12:31:46;;;;;;;12.35;2.95;;;;;;;;;;5071769;28;20169;-67
2023/12/25 12:34:12;;;;;;;5.60;1.67;;;;;;;;;;5090511;28;20107;-68
2023/12/25 12:36:38;;;;;;;7.07;2.00;;;;;;;;;;5085395;28;20087;-67
2023/12/25 12:39:05;;;;;;;12.10;2.85;;;;;;;;;;5072663;28;20502;-67
2023/12/25 12:41:31;;;;;;;9.10;2.35;;;;;;;;;;5095305;28;20127;-67
2023/12/25 12:44:04;;;;;;;7.78;1.98;;;;;;;;;;5055000;28;20036;-67
2023/12/25 12:46:30;;;;;;;8.95;2.28;;;;;;;;;;5072918;28;20047;-67
2023/12/25 12:48:56;;;;;;;8.98;1.95;;;;;;;;;;5072117;28;20511;-67
2023/12/25 12:51:25;;;;;;;10.80;1.95;;;;;;;;;;5069823;28;20132;-67
2023/12/25 12:53:51;;;;;;;6.28;1.77;;;;;;;;;;5086953;28;20059;-67
2023/12/25 12:56:17;;;;;;;6.10;1.73;;;;;;;;;;5089545;28;20024;-68
2023/12/25 12:58:43;;;;;;;10.75;1.90;;;;;;;;;;5091486;28;20123;-67
2023/12/25 13:01:10;;;;;;;9.20;2.08;;;;;;;;;;5080632;28;20415;-69
2023/12/25 13:03:36;;;;;;;8.50;2.17;;;;;;;;;;5067340;28;20044;-67
2023/12/25 13:06:02;;;;;;;7.65;2.00;;;;;;;;;;5083731;28;20122;-66
2023/12/25 13:08:28;;;;;;;7.20;2.00;;;;;;;;;;5068922;28;20410;-67
2023/12/25 13:10:54;;;;;;;5.50;2.17;;;;;;;;;;5068552;28;20039;-67
2023/12/25 13:13:20;;;;;;;8.70;2.20;;;;;;;;;;5070747;28;20036;-67
2023/12/25 13:15:46;;;;;;;10.20;2.22;;;;;;;;;;5068020;28;20467;-66
2023/12/25 13:18:12;;;;;;;8.00;2.08;;;;;;;;;;5074115;28;20059;-66
2023/12/25 13:20:38;;;;;;;8.65;2.40;;;;;;;;;;5062224;28;20036;-66
2023/12/25 13:23:04;;;;;;;6.32;1.95;;;;;;;;;;5076279;28;20387;-66
2023/12/25 13:25:30;;;;;;;10.30;2.58;;;;;;;;;;5062594;28;20044;-66
2023/12/25 13:27:56;;;;;;;7.72;2.28;;;;;;;;;;5063256;28;20071;-67
2023/12/25 13:30:22;;;;;;;6.60;2.00;;;;;;;;;;5059010;28;20122;-68
2023/12/25 13:32:48;;;;;;;8.93;2.20;;;;;;;;;;5061685;28;20432;-68
2023/12/25 13:35:14;;;;;;;4.55;2.03;;;;;;;;;;5079272;28;20052;-67
2023/12/25 13:37:40;;;;;;;5.50;1.83;;;;;;;;;;5059507;28;20032;-68
2023/12/25 13:40:06;;;;;;;8.05;1.80;;;;;;;;;;5060324;28;20039;-67
2023/12/25 13:42:33;;;;;;;5.53;1.73;;;;;;;;;;5079639;28;20044;-67
2023/12/25 13:44:59;;;;;;;5.35;1.98;;;;;;;;;;5061413;28;20058;-67
2023/12/25 13:47:25;;;;;;;7.28;2.15;;;;;;;;;;5081455;28;20043;-67
2023/12/25 13:49:51;;;;;;;6.18;1.98;;;;;;;;;;5063163;28;20066;-66
2023/12/25 13:52:17;;;;;;;10.48;1.80;;;;;;;;;;5078574;28;20494;-67
2023/12/25 13:54:43;;;;;;;7.50;1.67;;;;;;;;;;5071390;28;20035;-67
2023/12/25 13:57:09;;;;;;;6.75;2.10;;;;;;;;;;5062852;28;20036;-67
2023/12/25 13:59:35;;;;;;;11.02;2.60;;;;;;;;;;5083599;28;20043;-67
2023/12/25 14:02:01;;;;;;;7.00;2.08;;;;;;;;;;5069559;28;20042;-67
2023/12/25 14:04:27;;;;;;;6.85;1.83;;;;;;;;;;5066829;28;20055;-66
2023/12/25 14:06:53;;;;;;;8.32;1.63;;;;;;;;;;5076120;28;20418;-65
2023/12/25 14:09:19;;;;;;;6.50;2.00;;;;;;;;;;5057736;28;20108;-66
2023/12/25 14:11:45;;;;;;;9.45;1.77;;;;;;;;;;5075316;28;20774;-65
2023/12/25 14:14:11;;;;;;;9.80;2.22;;;;;;;;;;5087432;28;20032;-66
2023/12/25 14:16:37;;;;;;;5.57;1.85;;;;;;;;;;5076676;28;20559;-66
2023/12/25 14:19:03;;;;;;;9.60;1.58;;;;;;;;;;5070415;28;20058;-66
2023/12/25 14:21:29;;;;;;;7.13;2.35;;;;;;;;;;5081227;28;20052;-65
2023/12/25 14:23:55;;;;;;;8.25;1.90;;;;;;;;;;5088443;28;20511;-66
2023/12/25 14:26:21;;;;;;;9.15;1.80;;;;;;;;;;5084578;28;20495;-66
2023/12/25 14:28:47;;;;;;;8.38;1.88;;;;;;;;;;5073793;28;20048;-66
2023/12/25 14:31:13;;;;;;;5.03;1.52;;;;;;;;;;5081700;28;20036;-66
2023/12/25 14:33:43;;;;;;;12.32;2.05;;;;;;;;;;5084613;28;20035;-65
2023/12/25 14:36:09;;;;;;;7.07;1.70;;;;;;;;;;5070820;28;20462;-66